Terminal Aerodrome Forecast
Issued by NWS Chicago, IL

Home | Current Version | Previous Version | Text Only | Print | Product List | Glossary Off
Versions: 1 2 3 4 5 6 7 8 9 10 11 12 13 14 15 16 17 18 19 20 21 22 23 24 25 26 27 28 29 30 31 32 33 34 35

000
FTUS43 KLOT 311523 AAC
TAFRFD
TAF AMD
KRFD 311523Z 3115/0112 34009KT 6SM BR OVC005
     FM311600 33010KT P6SM FEW006 BKN020
     FM311800 32012KT P6SM SKC
     FM010000 30005KT P6SM SKC
     FM011000 10005KT P6SM SCT250=

USA.gov is the U.S. government's official web portal to all federal, state and local government web resources and services.